Time;durP1;ratioP1;P1;durP2;ratioP2;P2;SDS_P1;SDS_P2;PMS_P1;PMS_P2;Temp;Humidity;BMP_temperature;BMP_pressure;BME280_temperature;BME280_humidity;BME280_pressure;Samples;Min_cycle;Max_cycle;Signal;HPM_P1;HPM_P2
2023/05/30 00:02:06;;;;;;;11.90;8.00;;;;;;;12.96;62.22;96797.13;108857;1265;22546;-76
2023/05/30 00:04:39;;;;;;;13.00;8.10;;;;;;;12.99;62.17;96798.23;108821;1271;22515;-76
2023/05/30 00:07:10;;;;;;;12.00;7.50;;;;;;;13.01;62.14;96798.31;108928;1271;23079;-76
2023/05/30 00:09:41;;;;;;;14.30;8.90;;;;;;;12.99;62.20;96795.53;108774;1271;24199;-76
2023/05/30 00:12:12;;;;;;;14.30;9.40;;;;;;;12.96;62.27;96797.13;108897;1271;22517;-76
2023/05/30 00:14:43;;;;;;;12.40;7.60;;;;;;;12.97;62.45;96797.22;108860;1264;22534;-76
2023/05/30 00:17:16;;;;;;;12.00;8.90;;;;;;;12.94;62.32;96797.46;108903;1271;22912;-76
2023/05/30 00:19:47;;;;;;;10.20;7.40;;;;;;;12.85;62.42;96796.99;108892;1271;22518;-76
2023/05/30 00:22:19;;;;;;;11.00;7.60;;;;;;;12.84;62.58;96793.73;108905;1270;22521;-76
2023/05/30 00:24:52;;;;;;;12.40;7.50;;;;;;;12.81;62.54;96794.83;108928;1271;23357;-76
2023/05/30 00:27:23;;;;;;;11.50;7.00;;;;;;;12.78;62.58;96791.30;108947;1271;22521;-76
2023/05/30 00:29:54;;;;;;;9.00;6.30;;;;;;;12.75;62.56;96790.44;108885;1271;22534;-76
2023/05/30 00:32:25;;;;;;;8.80;6.30;;;;;;;12.72;62.51;96785.59;108901;1271;23257;-76
2023/05/30 00:34:56;;;;;;;9.70;6.60;;;;;;;12.67;62.51;96782.78;108892;1271;25462;-76
2023/05/30 00:37:27;;;;;;;8.70;6.30;;;;;;;12.61;62.57;96788.98;108853;1266;22518;-76
2023/05/30 00:39:58;;;;;;;9.40;6.80;;;;;;;12.61;62.78;96784.93;108837;1271;22518;-76
2023/05/30 00:42:30;;;;;;;9.90;6.20;;;;;;;12.63;62.81;96784.21;108923;1271;25249;-75
2023/05/30 00:45:01;;;;;;;8.50;6.40;;;;;;;12.63;62.81;96784.59;108867;1266;22521;-75
2023/05/30 00:47:32;;;;;;;12.70;7.00;;;;;;;12.64;62.93;96786.64;108902;1271;24186;-76
2023/05/30 00:50:04;;;;;;;9.80;6.40;;;;;;;12.67;62.93;96784.54;108959;1271;22567;-76
2023/05/30 00:52:36;;;;;;;10.00;6.80;;;;;;;12.62;62.96;96784.23;108898;1271;22537;-76
2023/05/30 00:55:09;;;;;;;11.10;7.20;;;;;;;12.65;63.02;96782.27;108888;1266;22521;-76
2023/05/30 00:57:40;;;;;;;8.40;5.80;;;;;;;12.62;63.06;96785.66;108958;1266;22530;-76
2023/05/30 01:00:14;;;;;;;10.90;6.80;;;;;;;12.62;63.09;96782.95;108914;1271;27452;-76
2023/05/30 01:02:46;;;;;;;9.60;6.60;;;;;;;12.63;63.24;96785.38;108878;1266;22523;-75
2023/05/30 01:05:18;;;;;;;8.90;6.60;;;;;;;12.64;63.11;96788.23;108869;1267;25380;-76
2023/05/30 01:07:48;;;;;;;10.10;7.30;;;;;;;12.62;63.23;96790.61;108932;1266;22541;-76
2023/05/30 01:10:20;;;;;;;9.40;5.90;;;;;;;12.59;63.25;96791.02;108837;1268;22511;-76
2023/05/30 01:13:04;;;;;;;9.40;6.00;;;;;;;12.51;63.24;96791.19;108927;1269;24400;-76
2023/05/30 01:15:38;;;;;;;9.40;6.20;;;;;;;12.43;63.36;96792.09;108868;1271;22936;-76
2023/05/30 01:18:17;;;;;;;10.10;6.40;;;;;;;12.31;63.54;96791.31;108909;1271;22518;-75
2023/05/30 01:20:55;;;;;;;8.80;5.80;;;;;;;12.28;63.62;96790.48;108883;1269;24389;-76
2023/05/30 01:23:43;;;;;;;7.90;5.80;;;;;;;12.27;63.86;96791.86;108896;1265;22521;-76
2023/05/30 01:26:30;;;;;;;8.10;6.00;;;;;;;12.31;64.10;96794.36;108875;1271;22522;-76
2023/05/30 01:29:02;;;;;;;10.20;6.20;;;;;;;12.33;64.09;96798.48;108898;1264;22518;-75
2023/05/30 01:31:34;;;;;;;9.20;6.20;;;;;;;12.34;64.30;96800.42;108886;1271;24183;-76
2023/05/30 01:34:06;;;;;;;8.30;5.90;;;;;;;12.37;64.34;96799.16;108935;1271;22514;-76
2023/05/30 01:36:37;;;;;;;9.90;6.20;;;;;;;12.38;64.36;96800.96;108910;1266;24264;-76
2023/05/30 01:39:10;;;;;;;12.00;7.20;;;;;;;12.36;64.31;96795.13;108891;1269;22525;-76
2023/05/30 01:41:53;;;;;;;10.30;5.80;;;;;;;12.38;64.45;96801.06;108835;1269;22505;-76
2023/05/30 01:44:30;;;;;;;8.90;6.20;;;;;;;12.39;64.44;96798.73;108905;1264;22514;-76
2023/05/30 01:47:13;;;;;;;8.10;5.90;;;;;;;12.38;64.54;96800.96;108910;1271;22528;-75
2023/05/30 01:49:51;;;;;;;9.70;6.50;;;;;;;12.37;64.49;96800.65;108826;1271;22515;-76
2023/05/30 01:52:27;;;;;;;10.90;6.40;;;;;;;12.32;64.51;96805.30;108922;1266;22649;-75
2023/05/30 01:55:04;;;;;;;10.40;6.40;;;;;;;12.30;64.62;96806.77;108864;1263;22517;-76
2023/05/30 01:57:39;;;;;;;13.40;7.40;;;;;;;12.29;64.69;96803.04;108885;1271;23027;-76
2023/05/30 02:00:15;;;;;;;10.00;6.60;;;;;;;12.26;64.80;96805.80;108853;1271;22517;-76
2023/05/30 02:02:47;;;;;;;10.00;7.20;;;;;;;12.25;64.89;96803.79;108960;1271;22505;-76
2023/05/30 02:05:18;;;;;;;10.80;6.30;;;;;;;12.13;64.91;96809.13;108930;1271;22519;-76
2023/05/30 02:07:49;;;;;;;12.50;6.60;;;;;;;12.12;65.16;96805.31;108976;1271;22612;-76
2023/05/30 02:10:22;;;;;;;9.70;6.90;;;;;;;12.16;65.30;96806.11;108852;1265;22527;-76
2023/05/30 02:12:53;;;;;;;11.70;6.50;;;;;;;12.18;65.36;96807.27;108880;1271;22518;-76
2023/05/30 02:15:24;;;;;;;9.60;6.90;;;;;;;12.20;65.46;96806.70;108901;1271;22514;-76
2023/05/30 02:17:55;;;;;;;10.40;7.60;;;;;;;12.26;65.44;96811.48;108860;1269;24212;-76
2023/05/30 02:20:26;;;;;;;8.60;6.80;;;;;;;12.31;65.44;96811.32;108904;1267;25406;-76
2023/05/30 02:22:56;;;;;;;9.50;6.80;;;;;;;12.32;65.29;96811.67;108908;1271;25399;-76
2023/05/30 02:25:28;;;;;;;11.20;7.40;;;;;;;12.28;65.44;96810.88;108904;1266;22527;-76
2023/05/30 02:27:58;;;;;;;9.90;7.20;;;;;;;12.29;65.52;96808.20;108835;1271;22514;-76
2023/05/30 02:30:31;;;;;;;8.90;7.00;;;;;;;12.30;65.55;96808.40;108947;1271;25406;-76
2023/05/30 02:33:03;;;;;;;10.60;6.50;;;;;;;12.31;65.60;96806.85;108908;1271;22593;-76
2023/05/30 02:35:34;;;;;;;13.30;7.40;;;;;;;12.28;65.55;96804.48;108922;1271;22512;-76
2023/05/30 02:38:05;;;;;;;9.60;6.50;;;;;;;12.23;65.64;96803.42;108849;1271;23752;-75
2023/05/30 02:40:36;;;;;;;9.80;7.40;;;;;;;12.19;65.65;96804.33;108884;1271;25411;-76
2023/05/30 02:43:07;;;;;;;10.40;6.70;;;;;;;12.12;65.75;96807.70;108870;1263;25399;-76
2023/05/30 02:45:38;;;;;;;10.20;7.30;;;;;;;12.07;65.82;96806.09;108844;1267;22539;-75
2023/05/30 02:48:09;;;;;;;12.80;7.40;;;;;;;12.04;66.04;96810.13;108919;1271;22515;-76
2023/05/30 02:50:40;;;;;;;9.90;7.20;;;;;;;12.04;66.14;96809.70;108887;1268;22570;-76
2023/05/30 02:53:11;;;;;;;10.90;7.00;;;;;;;12.09;66.31;96813.47;108914;1264;22508;-76
2023/05/30 02:55:45;;;;;;;12.20;6.70;;;;;;;12.12;66.51;96818.50;108941;1269;22558;-76
2023/05/30 02:58:16;;;;;;;9.70;6.40;;;;;;;12.13;66.61;96817.86;108916;1267;22527;-76
2023/05/30 03:00:47;;;;;;;10.70;6.60;;;;;;;12.13;66.62;96817.48;108889;1271;22512;-76
2023/05/30 03:03:19;;;;;;;9.70;6.70;;;;;;;12.14;66.73;96814.97;108913;1264;22980;-76
2023/05/30 03:05:51;;;;;;;9.00;6.80;;;;;;;12.15;66.67;96816.27;108936;1266;22514;-76
2023/05/30 03:08:22;;;;;;;12.40;7.00;;;;;;;12.17;66.70;96812.05;108956;1267;22511;-76
2023/05/30 03:10:54;;;;;;;10.60;6.10;;;;;;;12.15;66.82;96814.15;108901;1271;22518;-76
2023/05/30 03:13:25;;;;;;;10.20;6.40;;;;;;;12.17;67.04;96815.93;108930;1269;22507;-76
2023/05/30 03:15:56;;;;;;;10.90;7.00;;;;;;;12.24;66.90;96815.80;109032;1267;22539;-76
2023/05/30 03:18:30;;;;;;;8.80;6.10;;;;;;;12.30;66.82;96814.63;108987;1271;22644;-76
2023/05/30 03:21:00;;;;;;;11.00;6.90;;;;;;;12.32;66.69;96813.75;108934;1269;22593;-76
2023/05/30 03:23:32;;;;;;;10.20;6.20;;;;;;;12.34;66.78;96817.86;108991;1269;22520;-76
2023/05/30 03:26:04;;;;;;;10.00;6.20;;;;;;;12.40;66.83;96818.75;108936;1268;22512;-76
2023/05/30 03:28:35;;;;;;;11.30;6.60;;;;;;;12.45;66.91;96820.40;108970;1269;22520;-76
2023/05/30 03:31:08;;;;;;;8.90;6.10;;;;;;;12.46;66.92;96821.44;108903;1265;43704;-75
2023/05/30 03:33:42;;;;;;;9.10;6.10;;;;;;;12.49;67.08;96823.54;108989;1262;22623;-76
2023/05/30 03:36:13;;;;;;;10.30;6.20;;;;;;;12.51;67.25;96827.77;108954;1265;22583;-76
2023/05/30 03:38:44;;;;;;;9.10;6.00;;;;;;;12.54;67.43;96830.88;108926;1266;22517;-76
2023/05/30 03:41:15;;;;;;;9.70;6.10;;;;;;;12.55;67.39;96832.68;108981;1269;22531;-76
2023/05/30 03:43:48;;;;;;;10.00;6.00;;;;;;;12.54;67.47;96833.92;108896;1269;24187;-76
2023/05/30 03:46:21;;;;;;;8.80;6.20;;;;;;;12.56;67.43;96835.91;108936;1271;22515;-76
2023/05/30 03:48:53;;;;;;;8.50;5.80;;;;;;;12.58;67.49;96838.38;108978;1268;22530;-76
2023/05/30 03:51:30;;;;;;;11.40;6.40;;;;;;;12.61;67.57;96838.60;108922;1266;23838;-76
2023/05/30 03:54:02;;;;;;;7.60;6.20;;;;;;;12.66;67.59;96840.51;108999;1271;24659;-76
2023/05/30 03:56:33;;;;;;;8.90;5.90;;;;;;;12.72;67.48;96844.10;108933;1269;22548;-76
2023/05/30 03:59:04;;;;;;;9.10;6.80;;;;;;;12.78;67.80;96845.25;108954;1266;25571;-76
2023/05/30 04:01:37;;;;;;;10.60;6.50;;;;;;;12.82;67.89;96842.66;108891;1264;22589;-76
2023/05/30 04:04:08;;;;;;;8.30;5.60;;;;;;;12.84;67.88;96844.71;108983;1266;22527;-76
2023/05/30 04:06:39;;;;;;;8.90;5.30;;;;;;;12.87;68.28;96850.08;108913;1271;22526;-76
2023/05/30 04:09:10;;;;;;;11.90;7.10;;;;;;;12.92;68.41;96852.30;108934;1269;23072;-76
2023/05/30 04:11:42;;;;;;;11.50;7.30;;;;;;;12.98;68.09;96850.38;108898;1269;22598;-76
2023/05/30 04:14:16;;;;;;;9.50;6.90;;;;;;;13.02;67.70;96853.07;108923;1268;23235;-76
2023/05/30 04:16:51;;;;;;;13.50;8.40;;;;;;;13.03;67.46;96852.89;108947;1266;22511;-76
2023/05/30 04:19:24;;;;;;;12.00;7.00;;;;;;;13.02;67.36;96855.14;109004;1267;24212;-76
2023/05/30 04:21:55;;;;;;;10.20;7.20;;;;;;;13.06;67.37;96855.35;108979;1271;25271;-76
2023/05/30 04:24:29;;;;;;;12.00;7.50;;;;;;;13.07;67.41;96851.66;108995;1269;22507;-76
2023/05/30 04:27:00;;;;;;;10.70;7.00;;;;;;;13.10;67.65;96858.88;109218;1266;22591;-76
2023/05/30 04:29:32;;;;;;;9.80;6.70;;;;;;;13.19;67.79;96860.10;108970;1266;22548;-76
2023/05/30 04:32:07;;;;;;;10.20;6.90;;;;;;;13.27;67.72;96863.83;108997;1267;22514;-76
2023/05/30 04:34:39;;;;;;;11.90;8.00;;;;;;;13.31;67.40;96861.30;108986;1269;22514;-76
2023/05/30 04:37:11;;;;;;;10.40;7.30;;;;;;;13.36;67.47;96862.61;108976;1269;22614;-76
2023/05/30 04:39:51;;;;;;;11.00;7.20;;;;;;;13.43;67.29;96858.11;108883;1266;44450;-76
2023/05/30 04:42:23;;;;;;;11.00;8.30;;;;;;;13.48;67.19;96857.05;108912;1266;22572;-76
2023/05/30 04:44:55;;;;;;;12.70;7.00;;;;;;;13.54;67.03;96859.42;108920;1249;23241;-76
2023/05/30 04:47:28;;;;;;;10.30;7.60;;;;;;;13.60;66.95;96865.70;108946;1269;22556;-76
2023/05/30 04:50:00;;;;;;;10.40;6.50;;;;;;;13.68;66.91;96866.62;108900;1263;25473;-76
2023/05/30 04:52:31;;;;;;;10.80;7.80;;;;;;;13.75;66.79;96867.33;108905;1266;22544;-76
2023/05/30 04:55:02;;;;;;;12.00;7.50;;;;;;;13.81;66.61;96868.63;108967;1269;25246;-76
2023/05/30 04:57:35;;;;;;;13.30;8.60;;;;;;;13.87;66.35;96870.92;108981;1269;23605;-76
2023/05/30 05:00:13;;;;;;;11.30;7.10;;;;;;;13.94;66.28;96869.14;109001;1271;24190;-76
2023/05/30 05:02:45;;;;;;;9.70;7.50;;;;;;;14.04;66.06;96866.85;108908;1271;23967;-76
2023/05/30 05:05:16;;;;;;;11.60;7.60;;;;;;;14.12;65.83;96871.77;108980;1266;27566;-76
2023/05/30 05:07:47;;;;;;;9.60;7.10;;;;;;;14.21;65.78;96873.56;108951;1250;24430;-76
2023/05/30 05:10:19;;;;;;;11.00;7.40;;;;;;;14.31;65.82;96874.10;108976;1267;22546;-76
2023/05/30 05:12:51;;;;;;;10.00;6.90;;;;;;;14.46;65.69;96874.73;109037;1271;22624;-76
2023/05/30 05:15:24;;;;;;;10.60;6.90;;;;;;;14.51;65.51;96873.22;108913;1269;22523;-76
2023/05/30 05:17:58;;;;;;;12.10;7.40;;;;;;;14.53;65.49;96873.65;108913;1271;22521;-76
2023/05/30 05:20:31;;;;;;;9.00;6.80;;;;;;;14.59;65.46;96872.10;108908;1265;22946;-76
2023/05/30 05:23:02;;;;;;;10.70;7.10;;;;;;;14.66;65.59;96873.88;108958;1269;22717;-76
2023/05/30 05:25:33;;;;;;;11.50;6.40;;;;;;;14.71;65.31;96875.00;108913;1266;22534;-76
2023/05/30 05:28:06;;;;;;;10.00;6.60;;;;;;;14.71;65.10;96875.10;108975;1269;22515;-76
2023/05/30 05:30:40;;;;;;;11.80;7.00;;;;;;;14.68;64.95;96881.56;108962;1264;22549;-76
2023/05/30 05:33:13;;;;;;;9.70;6.30;;;;;;;14.69;64.95;96881.71;108992;1269;22531;-76
2023/05/30 05:35:48;;;;;;;9.60;6.10;;;;;;;14.73;65.27;96882.44;108925;1267;24218;-76
2023/05/30 05:38:20;;;;;;;10.10;6.40;;;;;;;14.76;65.25;96881.23;108948;1269;22552;-76
2023/05/30 05:40:51;;;;;;;11.40;6.70;;;;;;;14.82;65.36;96883.64;108943;1269;22610;-76
2023/05/30 05:43:22;;;;;;;9.60;6.50;;;;;;;14.91;65.69;96886.52;108975;1269;25586;-76
2023/05/30 05:45:53;;;;;;;11.50;7.30;;;;;;;15.03;65.68;96888.48;108938;1268;22554;-76
2023/05/30 05:48:25;;;;;;;12.20;6.90;;;;;;;15.23;65.73;96893.98;108971;1271;22525;-76
2023/05/30 05:50:59;;;;;;;9.40;6.70;;;;;;;15.66;65.86;96897.99;108813;1271;22508;-76
2023/05/30 05:53:30;;;;;;;13.00;8.10;;;;;;;16.11;65.07;96899.85;108955;1259;22530;-76
2023/05/30 05:56:01;;;;;;;11.70;7.40;;;;;;;16.30;64.23;96900.07;108936;1268;22549;-76
2023/05/30 05:58:37;;;;;;;13.00;7.50;;;;;;;16.43;63.98;96898.53;108896;1269;22522;-76
2023/05/30 06:01:08;;;;;;;10.90;7.00;;;;;;;16.76;64.15;96900.92;108964;1271;22516;-76
2023/05/30 06:03:39;;;;;;;11.10;7.50;;;;;;;17.32;64.14;96902.27;108957;1268;22507;-76
2023/05/30 06:06:10;;;;;;;10.50;7.00;;;;;;;17.86;63.77;96905.28;108948;1271;22515;-76
2023/05/30 06:08:41;;;;;;;11.70;7.00;;;;;;;18.25;63.32;96901.82;109002;1271;22547;-76
2023/05/30 06:11:12;;;;;;;9.80;6.50;;;;;;;18.60;62.60;96905.10;108929;1269;25227;-76
2023/05/30 06:13:43;;;;;;;10.20;6.80;;;;;;;18.82;62.33;96907.36;108953;1260;22553;-76
2023/05/30 06:16:14;;;;;;;10.70;6.40;;;;;;;18.98;61.79;96908.60;108933;1267;22652;-76
2023/05/30 06:18:45;;;;;;;12.70;6.70;;;;;;;19.28;61.29;96911.03;108896;1269;24304;-76
2023/05/30 06:21:16;;;;;;;10.40;6.10;;;;;;;19.71;61.25;96911.98;108943;1271;22511;-76
2023/05/30 06:23:47;;;;;;;12.20;7.50;;;;;;;20.46;61.10;96912.58;108865;1271;25252;-76
2023/05/30 06:26:18;;;;;;;13.50;8.20;;;;;;;21.45;59.42;96909.62;108953;1271;24216;-76
2023/05/30 06:28:51;;;;;;;10.80;7.50;;;;;;;22.21;58.01;96913.78;108910;1271;22522;-76
2023/05/30 06:31:22;;;;;;;10.40;6.60;;;;;;;22.54;56.00;96914.00;108983;1269;22513;-76
2023/05/30 06:33:55;;;;;;;9.80;6.70;;;;;;;22.50;54.86;96917.45;108885;1271;22514;-77
2023/05/30 06:36:28;;;;;;;10.80;7.10;;;;;;;22.34;53.91;96926.70;108894;1267;23279;-77
2023/05/30 06:38:59;;;;;;;9.80;6.80;;;;;;;22.38;53.55;96928.12;108962;1267;22537;-77
2023/05/30 06:41:30;;;;;;;10.10;7.00;;;;;;;22.29;53.08;96924.95;108915;1264;22753;-77
2023/05/30 06:44:01;;;;;;;10.60;6.60;;;;;;;22.10;52.91;96928.77;108929;1266;22546;-77
2023/05/30 06:46:35;;;;;;;10.40;6.50;;;;;;;22.06;52.75;96933.27;108879;1271;24209;-77
2023/05/30 06:49:08;;;;;;;9.60;7.10;;;;;;;21.97;52.21;96929.85;109020;1269;25606;-77
2023/05/30 06:51:41;;;;;;;10.20;6.60;;;;;;;21.88;52.26;96932.70;108777;1272;22538;-76
2023/05/30 06:54:12;;;;;;;9.50;6.60;;;;;;;21.83;51.81;96931.48;108769;1270;22522;-77
2023/05/30 06:56:42;;;;;;;9.30;5.40;;;;;;;21.94;52.05;96933.94;108772;1272;22936;-76
2023/05/30 06:59:13;;;;;;;13.70;6.10;;;;;;;22.19;51.62;96934.16;108812;1266;22510;-76
2023/05/30 07:01:44;;;;;;;8.90;6.30;;;;;;;22.41;51.33;96934.68;108743;1273;22531;-76
2023/05/30 07:04:15;;;;;;;13.40;5.50;;;;;;;22.60;50.63;96933.91;108753;1272;22916;-77
2023/05/30 07:06:47;;;;;;;11.60;6.10;;;;;;;22.72;50.23;96933.38;108776;1272;22530;-76
2023/05/30 07:09:17;;;;;;;10.90;6.50;;;;;;;22.92;50.03;96933.64;108830;1273;22523;-77
2023/05/30 07:11:49;;;;;;;8.90;6.30;;;;;;;22.81;48.76;96936.30;108888;1269;22521;-77
2023/05/30 07:14:20;;;;;;;10.30;5.40;;;;;;;22.67;48.53;96938.83;108979;1263;22523;-76
2023/05/30 07:16:51;;;;;;;12.50;6.30;;;;;;;22.73;48.73;96936.09;108940;1269;22504;-77
2023/05/30 07:19:22;;;;;;;10.30;6.20;;;;;;;22.82;48.47;96934.88;108902;1271;22569;-76
2023/05/30 07:21:53;;;;;;;10.30;5.90;;;;;;;22.78;47.75;96932.75;108934;1269;24724;-77
2023/05/30 07:24:24;;;;;;;8.90;6.10;;;;;;;22.84;48.35;96936.36;108888;1266;22522;-76
2023/05/30 07:26:55;;;;;;;14.80;6.00;;;;;;;23.11;48.29;96933.70;108957;1266;22518;-76
2023/05/30 07:29:26;;;;;;;9.20;5.70;;;;;;;23.20;47.35;96940.31;108863;1269;22592;-76
2023/05/30 07:31:58;;;;;;;11.30;6.80;;;;;;;23.24;47.19;96943.99;108678;1254;22522;-77
2023/05/30 07:34:29;;;;;;;12.90;7.00;;;;;;;23.26;47.32;96943.17;108612;1271;22514;-76
2023/05/30 07:37:00;;;;;;;9.70;6.30;;;;;;;23.29;47.08;96938.29;108737;1271;25300;-76
2023/05/30 07:39:31;;;;;;;10.40;6.40;;;;;;;23.35;47.27;96934.78;108966;1271;25381;-76
2023/05/30 07:42:03;;;;;;;10.90;6.50;;;;;;;23.59;47.33;96931.15;108781;1273;22518;-76
2023/05/30 07:44:34;;;;;;;12.20;6.20;;;;;;;23.79;47.24;96929.65;108853;1273;25388;-76
2023/05/30 07:47:05;;;;;;;9.30;6.10;;;;;;;23.75;46.37;96932.41;108847;1270;22526;-76
2023/05/30 07:49:36;;;;;;;12.40;6.20;;;;;;;23.53;45.82;96935.26;108782;1272;22526;-78
2023/05/30 07:52:07;;;;;;;8.30;6.10;;;;;;;23.34;45.75;96930.60;108827;1270;22530;-76
2023/05/30 07:54:38;;;;;;;10.30;6.00;;;;;;;23.48;46.86;96932.53;108828;1273;25223;-76
2023/05/30 07:57:12;;;;;;;12.20;7.50;;;;;;;23.62;46.31;96935.55;108855;1273;22532;-76
2023/05/30 07:59:44;;;;;;;12.00;7.30;;;;;;;23.52;45.75;96938.48;108818;1273;22560;-76
2023/05/30 08:02:15;;;;;;;9.20;6.40;;;;;;;23.32;45.26;96942.84;108833;1273;22527;-76
2023/05/30 08:04:46;;;;;;;10.50;6.90;;;;;;;23.32;45.29;96940.69;108853;1269;22573;-77
2023/05/30 08:07:17;;;;;;;9.70;6.20;;;;;;;23.47;45.41;96940.60;108775;1267;22533;-76
2023/05/30 08:09:48;;;;;;;9.00;5.70;;;;;;;23.39;45.03;96941.54;108795;1273;22529;-77
2023/05/30 08:12:24;;;;;;;12.60;6.30;;;;;;;23.46;45.81;96943.69;108831;1272;22515;-76
2023/05/30 08:14:55;;;;;;;10.40;5.80;;;;;;;23.69;45.44;96944.60;108856;1269;22502;-76
2023/05/30 08:17:27;;;;;;;10.70;5.90;;;;;;;23.83;44.81;96942.64;108856;1273;25341;-77
2023/05/30 08:19:58;;;;;;;9.30;5.70;;;;;;;23.78;44.52;96945.46;108731;1272;168060;-77
2023/05/30 08:22:31;;;;;;;8.40;5.20;;;;;;;23.77;44.64;96946.06;108775;1273;22554;-76
2023/05/30 08:25:02;;;;;;;9.80;5.40;;;;;;;23.82;45.00;96944.02;108737;1273;22551;-76
2023/05/30 08:27:34;;;;;;;7.20;4.70;;;;;;;23.78;43.96;96944.47;108701;1273;22568;-76
2023/05/30 08:30:05;;;;;;;7.60;4.10;;;;;;;23.71;44.26;96947.26;108733;1270;25896;-78
2023/05/30 08:32:37;;;;;;;8.50;4.60;;;;;;;23.57;44.23;96949.36;108732;1273;22517;-78
2023/05/30 08:35:09;;;;;;;13.10;6.10;;;;;;;23.69;44.78;96945.14;108727;1273;22518;-77
2023/05/30 08:37:40;;;;;;;10.70;5.90;;;;;;;23.72;44.48;96949.91;108704;1272;22511;-76
2023/05/30 08:40:14;;;;;;;9.70;5.40;;;;;;;23.66;44.44;96946.79;108724;1262;23591;-77
2023/05/30 08:42:45;;;;;;;7.20;4.60;;;;;;;23.33;43.90;96956.33;108715;1273;24260;-77
2023/05/30 08:45:16;;;;;;;7.50;5.10;;;;;;;23.28;44.70;96958.36;108730;1273;22545;-77
2023/05/30 08:47:48;;;;;;;8.60;5.10;;;;;;;23.32;45.12;96961.94;108715;1270;25459;-77
2023/05/30 08:50:21;;;;;;;7.90;4.40;;;;;;;23.26;44.84;96962.04;108703;1273;22533;-77
2023/05/30 08:52:54;;;;;;;8.90;5.20;;;;;;;23.24;45.04;96965.02;108711;1272;22522;-77
2023/05/30 08:55:32;;;;;;;9.90;4.80;;;;;;;23.23;44.99;96968.46;108776;1273;22532;-77
2023/05/30 08:58:08;;;;;;;10.10;5.60;;;;;;;23.13;44.48;96970.15;108725;1269;22522;-77
2023/05/30 09:00:40;;;;;;;8.80;5.50;;;;;;;22.88;44.65;96971.86;108720;1269;24209;-77
2023/05/30 09:03:12;;;;;;;9.30;5.90;;;;;;;22.76;45.02;96974.80;108710;1272;23811;-77
2023/05/30 09:05:43;;;;;;;10.10;6.00;;;;;;;22.72;45.24;96972.13;108701;1273;22568;-77
2023/05/30 09:08:16;;;;;;;9.40;5.30;;;;;;;22.62;45.33;96972.80;108721;1273;22506;-77
2023/05/30 09:10:51;;;;;;;7.50;5.30;;;;;;;22.44;45.89;96969.02;108708;1272;22515;-77
2023/05/30 09:13:22;;;;;;;11.80;5.80;;;;;;;22.47;45.73;96973.42;108720;1273;22511;-77
2023/05/30 09:15:53;;;;;;;10.30;5.60;;;;;;;22.44;45.82;96971.73;108608;1267;22666;-76
2023/05/30 09:18:24;;;;;;;10.30;6.00;;;;;;;22.25;45.19;96965.13;108743;1273;23096;-76
2023/05/30 09:20:55;;;;;;;13.10;6.50;;;;;;;22.00;45.52;96964.73;108677;1267;22512;-76
2023/05/30 09:23:27;;;;;;;8.30;5.20;;;;;;;22.02;46.32;96963.61;108726;1269;23814;-76
2023/05/30 09:26:00;;;;;;;10.40;5.60;;;;;;;22.09;46.60;96957.59;108703;1273;23817;-76
2023/05/30 09:28:32;;;;;;;9.80;5.90;;;;;;;22.08;46.72;96955.45;108727;1269;22533;-75
2023/05/30 09:31:05;;;;;;;10.20;5.60;;;;;;;21.92;46.78;96958.04;108658;1269;22529;-75
2023/05/30 09:33:54;;;;;;;9.00;6.40;;;;;;;21.83;46.67;96957.30;108702;1272;22514;-75
2023/05/30 09:36:26;;;;;;;13.10;7.40;;;;;;;21.69;47.32;96959.67;108737;1270;22568;-75
2023/05/30 09:38:59;;;;;;;10.60;6.40;;;;;;;21.74;48.33;96957.42;108715;1273;22592;-75
2023/05/30 09:41:31;;;;;;;9.40;6.60;;;;;;;21.91;48.71;96959.20;108725;1269;26199;-75
2023/05/30 09:44:07;;;;;;;13.40;7.80;;;;;;;22.05;48.84;96961.69;108726;1273;22560;-75
2023/05/30 09:46:38;;;;;;;9.80;6.70;;;;;;;22.13;49.70;96958.23;108755;1273;24317;-74
2023/05/30 09:49:14;;;;;;;15.50;8.60;;;;;;;22.27;49.89;96958.78;108627;1273;22530;-75
2023/05/30 09:51:44;;;;;;;10.30;7.10;;;;;;;22.35;49.67;96961.30;108637;1266;22523;-75
2023/05/30 09:54:16;;;;;;;9.80;7.00;;;;;;;22.41;49.31;96964.79;108562;1272;22524;-75
2023/05/30 09:56:47;;;;;;;9.40;6.60;;;;;;;22.43;48.58;96966.59;108688;1251;22514;-75
2023/05/30 09:59:18;;;;;;;11.70;6.70;;;;;;;22.29;47.99;96960.66;108606;1273;22561;-75
2023/05/30 10:01:50;;;;;;;13.70;6.60;;;;;;;22.01;47.55;96959.89;108721;1272;22523;-74
2023/05/30 10:04:22;;;;;;;10.30;5.70;;;;;;;21.85;47.82;96967.63;108751;1273;22522;-75
2023/05/30 10:06:59;;;;;;;10.90;6.40;;;;;;;21.97;48.58;96970.16;108670;1273;22672;-75
2023/05/30 10:09:30;;;;;;;11.30;6.40;;;;;;;22.16;48.68;96970.91;108558;1272;25393;-75
2023/05/30 10:12:03;;;;;;;12.30;6.70;;;;;;;22.15;48.14;96972.79;108756;1256;22578;-74
2023/05/30 10:14:34;;;;;;;12.10;5.40;;;;;;;22.10;48.53;96969.17;108821;1266;22528;-75
2023/05/30 10:17:07;;;;;;;7.80;4.60;;;;;;;22.00;47.88;96964.23;108851;1269;22512;-76
2023/05/30 10:19:44;;;;;;;8.60;4.50;;;;;;;21.79;47.30;96969.82;108820;1269;22522;-76
2023/05/30 10:22:17;;;;;;;11.00;4.10;;;;;;;21.63;47.18;96974.98;108826;1271;22528;-75
2023/05/30 10:24:50;;;;;;;6.00;3.80;;;;;;;21.52;47.58;96978.89;110049;1272;22525;-76
2023/05/30 10:27:35;;;;;;;8.00;3.40;;;;;;;21.42;47.64;96981.74;108837;1267;23187;-75
2023/05/30 10:30:08;;;;;;;7.90;3.70;;;;;;;21.29;47.90;96983.60;108791;1267;25110;-75
2023/05/30 10:32:44;;;;;;;9.30;3.80;;;;;;;21.22;47.76;96983.17;109015;1272;22522;-76
2023/05/30 10:35:20;;;;;;;6.50;3.80;;;;;;;21.17;47.57;96979.51;108880;1267;22529;-75
2023/05/30 10:37:53;;;;;;;6.60;3.20;;;;;;;21.11;47.67;96980.46;109176;1270;22576;-77
2023/05/30 10:40:34;;;;;;;8.10;3.50;;;;;;;21.08;47.65;96974.87;109166;1270;22639;-76
2023/05/30 10:43:18;;;;;;;5.90;3.20;;;;;;;21.05;47.52;96978.10;109055;1272;22541;-75
2023/05/30 10:46:03;;;;;;;9.80;4.00;;;;;;;21.13;47.74;96974.96;108683;1273;22515;-76
2023/05/30 10:48:44;;;;;;;8.10;5.30;;;;;;;21.38;48.59;96969.98;108742;1269;22530;-78
2023/05/30 10:51:16;;;;;;;14.80;8.20;;;;;;;21.64;48.71;96966.30;109114;1269;22539;-80
2023/05/30 10:53:48;;;;;;;10.60;4.10;;;;;;;21.77;48.14;96962.36;109167;1272;22933;-78
2023/05/30 10:56:41;;;;;;;10.10;5.30;;;;;;;21.78;47.53;96965.02;109172;1266;23707;-76
2023/05/30 10:59:18;;;;;;;7.60;4.10;;;;;;;21.78;48.00;96967.19;108762;1269;22499;-76
2023/05/30 11:02:02;;;;;;;7.70;3.80;;;;;;;21.89;48.43;96968.10;108870;1272;25515;-76
2023/05/30 11:04:36;;;;;;;7.10;4.00;;;;;;;22.03;48.47;96969.73;108819;1264;22531;-76
2023/05/30 11:07:09;;;;;;;6.90;4.60;;;;;;;22.11;48.32;96968.98;108927;1269;22528;-76
2023/05/30 11:10:01;;;;;;;9.80;4.00;;;;;;;22.09;47.53;96971.94;108924;1271;22511;-76
2023/05/30 11:12:32;;;;;;;7.90;4.30;;;;;;;22.06;47.34;96967.46;108904;1271;22537;-77
2023/05/30 11:15:03;;;;;;;6.10;3.40;;;;;;;22.08;47.04;96964.17;108880;1264;26452;-77
2023/05/30 11:17:38;;;;;;;5.50;3.70;;;;;;;22.14;46.36;96959.35;108858;1266;24430;-77
2023/05/30 11:20:14;;;;;;;8.30;3.50;;;;;;;22.18;46.60;96959.30;108853;1267;23004;-77
2023/05/30 11:23:27;;;;;;;7.40;3.40;;;;;;;22.28;46.74;96960.67;108925;1269;22564;-77
2023/05/30 11:26:00;;;;;;;8.90;3.50;;;;;;;22.35;46.57;96965.37;108935;1267;22533;-77
2023/05/30 11:28:38;;;;;;;7.40;3.40;;;;;;;22.39;46.72;96965.52;108954;1267;23325;-78
2023/05/30 11:31:19;;;;;;;7.60;3.90;;;;;;;22.36;45.79;96962.24;108957;1251;22526;-77
2023/05/30 11:33:52;;;;;;;7.90;3.90;;;;;;;22.39;46.09;96954.09;108916;1264;25268;-78
2023/05/30 11:36:23;;;;;;;12.60;4.70;;;;;;;22.31;46.30;96961.27;109369;1272;22531;-77
2023/05/30 11:38:55;;;;;;;8.30;4.10;;;;;;;22.05;45.73;96956.40;109280;1267;22628;-77
2023/05/30 11:41:26;;;;;;;6.60;4.00;;;;;;;21.74;46.01;96956.65;109230;1269;22518;-78
2023/05/30 11:43:58;;;;;;;6.90;3.80;;;;;;;21.49;46.17;96959.68;109235;1269;22529;-78
2023/05/30 11:46:29;;;;;;;9.60;4.00;;;;;;;21.32;46.26;96963.05;109276;1272;22525;-79
2023/05/30 11:49:04;;;;;;;6.10;3.50;;;;;;;21.18;46.42;96967.59;109281;1271;22520;-77